Jack Mc Namara Field Airport
KCEC : now visible

Airfield :











YOU CAN JOIN US ON...

 
LOGIN :

Register | Disclaimer

   EN    FR    IT 

 









Legend :    VFR   Marginal VFR   IFR   Intensive IFR   Very Intensive IFR
Visi :
Ceiling :
>= 8 km
>= 3000ft
5 to 8 km
1000 to 3000 ft
1500m to 5 km
500 to 1000 ft
800 to 1500m
200 to 500 ft
< 800m
< 200 ft
Symbols :   Thunderstorms  Fog  Heavy snow  Heavy precipitations  Wind > 20 kt






- Airport Elevation : 61 ft
- IATA code : CEC


KCEC - Jack Mc Namara Field

CURRENT METAR :
  • 252013Z AUTO 19006KT 2SM BR OVC002 16/13 A3006 RMK AO2 T01560133

EXPIRED METARs :
  • 251956Z AUTO 20007KT 3SM HZ OVC002 16/13 A3006 RMK AO2 SLP181 T01560128
  • 251948Z AUTO 19007KT 2SM HZ OVC002 16/13 A3006 RMK AO2 VIS 3/4V4 T01560128
  • 251937Z AUTO 19007KT 1 1/4SM BR OVC002 14/13 A3006 RMK AO2 VIS 1/2V3 T01440128
  • 251922Z AUTO 19007KT 1 1/4SM BR BKN003 15/13 A3006 RMK AO2 T01500128
  • 251918Z AUTO 19007KT 2 1/2SM BR BKN003 15/13 A3007 RMK AO2 VIS 1 1/2V5 T01500128
  • 251903Z AUTO 19007KT 3SM BR SCT003 16/13 A3007 RMK AO2 T01560133
  • 251821Z AUTO 19005KT 8SM SCT003 14/13 A3007 RMK AO2 T01440128
  • 251810Z AUTO 20006KT 3SM BR BKN003 14/12 A3007 RMK AO2 T01390122
  • 251800Z AUTO 19005KT 1 3/4SM BR BKN003 14/13 A3007 RMK AO2 T01390128
  • 251753Z AUTO 21004KT 2SM BR OVC003 14/13 A3007 RMK AO2
  • 251741Z AUTO 19003KT 1 3/4SM BR OVC002 14/13 A3006 RMK AO2 VIS 3/4V5 T01390133
  • 251732Z AUTO 00000KT 3SM BR OVC002 14/14 A3007 RMK AO2 T01390139
  • 251714Z AUTO 18003KT 1/2SM FG VV002 13/13 A3006 RMK AO2 T01330133

TAF KCEC
Valid from the 25 at 18:00 until the 26 at 18:00 UTC


251753Z 2518/2618 22003KT 4SM BR OVC002
TEMPO 2518/2520 1SM BR OVC002
FM252300 18005KT 5SM BR SCT005
FM260200 17003KT 2SM BR BKN003
FM260800 17002KT 3/4SM BR OVC002
FM261700 22004KT 1SM BR OVC005
KZSE FIR / North America



MET'MAP, your aeronautical weather chart ! - Copyright ORBIFLY December 2007 - Disclaimer

ORBIFLY MET'MAP TEAM :

Programming & Development : Alexandra Zaïnal
Original concept : Baudouin d'Aumeries
Technical & hardware support : Manuel Goepfert
Assistance : Marc-Olivier Méhu




SOURCES & CREDITS :

   NOAA       Earth
Advisory